createdAt,value
2022-11-12T00:00:51.487Z,10.07
2022-11-12T00:03:12.077Z,8.33
2022-11-12T00:05:33.049Z,8.60
2022-11-12T00:07:53.867Z,9.57
2022-11-12T00:10:14.987Z,8.60
2022-11-12T00:12:35.700Z,8.90
2022-11-12T00:14:56.616Z,8.10
2022-11-12T00:17:17.667Z,9.50
2022-11-12T00:19:38.361Z,9.37
2022-11-12T00:21:59.058Z,9.00
2022-11-12T00:24:19.766Z,8.80
2022-11-12T00:26:40.581Z,9.10
2022-11-12T00:29:01.533Z,8.53
2022-11-12T00:31:22.352Z,8.77
2022-11-12T00:33:43.522Z,9.07
2022-11-12T00:36:04.636Z,7.90
2022-11-12T00:38:25.762Z,8.97
2022-11-12T00:40:46.890Z,9.53
2022-11-12T00:43:07.764Z,8.23
2022-11-12T00:45:28.525Z,8.53
2022-11-12T00:47:49.317Z,9.10
2022-11-12T00:50:10.339Z,8.00
2022-11-12T00:52:30.868Z,8.20
2022-11-12T00:54:51.694Z,8.73
2022-11-12T00:57:16.454Z,8.37
2022-11-12T00:59:36.795Z,8.20
2022-11-12T01:01:57.457Z,8.07
2022-11-12T01:04:18.344Z,8.10
2022-11-12T01:06:40.912Z,8.20
2022-11-12T01:09:01.684Z,9.60
2022-11-12T01:11:28.146Z,7.57
2022-11-12T01:13:55.256Z,8.40
2022-11-12T01:16:20.887Z,7.67
2022-11-12T01:18:42.051Z,9.40
2022-11-12T01:21:04.499Z,8.33
2022-11-12T01:23:25.273Z,7.93
2022-11-12T01:25:46.079Z,7.77
2022-11-12T01:28:07.008Z,8.77
2022-11-12T01:30:27.916Z,8.20
2022-11-12T01:32:48.881Z,8.83
2022-11-12T01:35:09.823Z,8.40
2022-11-12T01:37:30.580Z,8.03
2022-11-12T01:39:51.073Z,8.50
2022-11-12T01:42:12.398Z,8.20
2022-11-12T01:44:35.356Z,8.60
2022-11-12T01:47:17.552Z,8.37
2022-11-12T01:50:14.013Z,9.50
2022-11-12T01:52:39.158Z,11.07
2022-11-12T01:55:07.985Z,13.13
2022-11-12T01:57:34.764Z,10.40
2022-11-12T02:00:01.278Z,11.30
2022-11-12T02:02:22.136Z,8.87
2022-11-12T02:04:43.028Z,8.83
2022-11-12T02:07:03.828Z,10.00
2022-11-12T02:09:24.576Z,12.90
2022-11-12T02:11:45.477Z,12.43
2022-11-12T02:14:06.405Z,13.70
2022-11-12T02:16:36.026Z,12.03
2022-11-12T02:18:56.751Z,12.00
2022-11-12T02:21:24.802Z,10.30
2022-11-12T02:23:45.414Z,10.90
2022-11-12T02:26:06.106Z,10.73
2022-11-12T02:28:27.286Z,11.33
2022-11-12T02:30:49.392Z,11.93
2022-11-12T02:33:10.232Z,10.27
2022-11-12T02:35:31.355Z,9.93
2022-11-12T02:37:52.004Z,10.40
2022-11-12T02:40:13.028Z,10.23
2022-11-12T02:42:33.511Z,9.03
2022-11-12T02:44:54.338Z,9.13
2022-11-12T02:47:15.084Z,9.80
2022-11-12T02:49:35.969Z,8.87
2022-11-12T02:51:56.843Z,8.90
2022-11-12T02:54:17.522Z,8.70
2022-11-12T02:56:38.295Z,8.10
2022-11-12T02:58:59.216Z,8.70
2022-11-12T03:01:20.254Z,8.97
2022-11-12T03:03:41.086Z,7.77
2022-11-12T03:06:01.976Z,8.20
2022-11-12T03:08:23.225Z,7.57
2022-11-12T03:10:43.874Z,8.23
2022-11-12T03:13:05.271Z,9.10
2022-11-12T03:15:26.401Z,9.17
2022-11-12T03:17:47.261Z,9.73
2022-11-12T03:20:07.984Z,8.80
2022-11-12T03:22:28.500Z,8.90
2022-11-12T03:24:49.493Z,8.17
2022-11-12T03:27:10.256Z,8.90
2022-11-12T03:29:31.224Z,9.37
2022-11-12T03:31:52.052Z,8.60
2022-11-12T03:34:12.882Z,8.73
2022-11-12T03:36:33.769Z,8.40
2022-11-12T03:38:54.413Z,8.70
2022-11-12T03:41:15.304Z,7.77
2022-11-12T03:43:35.972Z,9.80
2022-11-12T03:45:56.979Z,8.20
2022-11-12T03:48:17.868Z,8.60
2022-11-12T03:50:38.672Z,9.00
2022-11-12T03:53:00.122Z,8.63
2022-11-12T03:55:22.417Z,8.90
2022-11-12T03:57:43.218Z,9.00
2022-11-12T04:00:05.924Z,9.10
2022-11-12T04:02:26.861Z,8.80
2022-11-12T04:05:06.035Z,8.70
2022-11-12T04:07:45.126Z,8.90
2022-11-12T04:10:06.246Z,8.20
2022-11-12T04:12:45.675Z,8.93
2022-11-12T04:15:06.793Z,8.03
2022-11-12T04:17:46.031Z,7.90
2022-11-12T04:20:25.877Z,8.37
2022-11-12T04:22:46.658Z,9.50
2022-11-12T04:25:25.794Z,8.80
2022-11-12T04:27:46.583Z,7.63
2022-11-12T04:30:16.732Z,7.70
2022-11-12T04:32:39.581Z,7.90
2022-11-12T04:35:00.765Z,8.20
2022-11-12T04:37:23.726Z,7.90
2022-11-12T04:39:44.424Z,9.60
2022-11-12T04:42:23.562Z,9.10
2022-11-12T04:45:16.353Z,8.97
2022-11-12T04:47:41.441Z,7.80
2022-11-12T04:50:11.305Z,8.20
2022-11-12T04:52:32.746Z,9.80
2022-11-12T04:54:53.912Z,9.40
2022-11-12T04:57:14.813Z,9.53
2022-11-12T04:59:35.630Z,9.70
2022-11-12T05:01:56.659Z,8.60
2022-11-12T05:04:17.516Z,8.50
2022-11-12T05:06:54.052Z,9.53
2022-11-12T05:09:15.182Z,7.63
2022-11-12T05:11:36.063Z,8.73
2022-11-12T05:13:56.959Z,8.83
2022-11-12T05:16:17.722Z,10.30
2022-11-12T05:18:38.492Z,10.07
2022-11-12T05:21:19.223Z,9.63
2022-11-12T05:23:40.132Z,9.13
2022-11-12T05:26:00.973Z,9.30
2022-11-12T05:28:21.853Z,10.23
2022-11-12T05:30:42.882Z,10.30
2022-11-12T05:33:03.511Z,11.07
2022-11-12T05:35:24.229Z,11.70
2022-11-12T05:37:44.898Z,11.03
2022-11-12T05:40:06.287Z,9.40
2022-11-12T05:42:26.875Z,10.40
2022-11-12T05:44:47.854Z,10.13
2022-11-12T05:47:08.353Z,11.00
2022-11-12T05:49:29.082Z,9.67
2022-11-12T05:51:49.672Z,10.10
2022-11-12T05:54:10.203Z,10.60
2022-11-12T05:56:30.863Z,10.00
2022-11-12T05:58:51.495Z,9.50
2022-11-12T06:01:12.155Z,9.07
2022-11-12T06:03:32.881Z,9.63
2022-11-12T06:05:53.526Z,10.67
2022-11-12T06:08:14.317Z,10.83
2022-11-12T06:10:35.228Z,10.23
2022-11-12T06:12:56.039Z,11.07
2022-11-12T06:15:16.545Z,12.03
2022-11-12T06:17:37.331Z,9.87
2022-11-12T06:19:58.073Z,11.10
2022-11-12T06:22:18.437Z,11.50
2022-11-12T06:24:39.318Z,11.63
2022-11-12T06:27:00.096Z,10.17
2022-11-12T06:29:20.819Z,10.77
2022-11-12T06:31:41.725Z,11.53
2022-11-12T06:34:03.316Z,12.57
2022-11-12T06:36:24.576Z,11.23
2022-11-12T06:38:45.568Z,10.90
2022-11-12T06:41:07.773Z,11.67
2022-11-12T06:43:30.104Z,12.20
2022-11-12T06:45:50.930Z,12.23
2022-11-12T06:48:11.437Z,11.80
2022-11-12T06:50:32.361Z,11.70
2022-11-12T06:52:58.346Z,11.17
2022-11-12T06:55:18.862Z,11.67
2022-11-12T06:57:39.579Z,11.17
2022-11-12T07:00:00.387Z,12.33
2022-11-12T07:02:20.980Z,11.50
2022-11-12T07:04:41.706Z,10.03
2022-11-12T07:07:05.650Z,11.30
2022-11-12T07:09:28.712Z,11.53
2022-11-12T07:11:49.631Z,11.07
2022-11-12T07:14:10.413Z,10.40
2022-11-12T07:16:31.274Z,10.70
2022-11-12T07:18:52.207Z,10.30
2022-11-12T07:21:15.095Z,12.37
2022-11-12T07:23:36.698Z,12.73
2022-11-12T07:26:02.056Z,17.83
2022-11-12T07:28:22.615Z,16.70
2022-11-12T07:30:43.540Z,14.53
2022-11-12T07:33:04.348Z,17.13
2022-11-12T07:35:25.125Z,18.93
2022-11-12T07:37:45.803Z,18.30
2022-11-12T07:40:07.186Z,16.50
2022-11-12T07:42:27.932Z,14.90
2022-11-12T07:44:48.731Z,14.77
2022-11-12T07:47:09.495Z,13.93
2022-11-12T07:49:30.366Z,12.00
2022-11-12T07:51:51.073Z,11.00
2022-11-12T07:54:11.923Z,10.23
2022-11-12T07:56:32.703Z,10.00
2022-11-12T07:58:53.435Z,10.40
2022-11-12T08:01:33.590Z,9.00
2022-11-12T08:03:54.616Z,9.17
2022-11-12T08:06:15.329Z,6.97
2022-11-12T08:08:36.149Z,6.47
2022-11-12T08:10:57.882Z,7.20
2022-11-12T08:13:18.857Z,6.93
2022-11-12T08:15:39.704Z,8.37
2022-11-12T08:18:00.342Z,7.90
2022-11-12T08:20:20.965Z,6.50
2022-11-12T08:22:47.955Z,6.93
2022-11-12T08:25:10.170Z,6.80
2022-11-12T08:27:30.983Z,5.57
2022-11-12T08:29:51.664Z,6.17
2022-11-12T08:32:12.417Z,6.33
2022-11-12T08:34:33.221Z,5.97
2022-11-12T08:36:54.020Z,6.37
2022-11-12T08:39:14.807Z,6.70
2022-11-12T08:41:35.542Z,6.03
2022-11-12T08:43:57.204Z,6.73
2022-11-12T08:46:17.786Z,6.53
2022-11-12T08:48:40.129Z,7.43
2022-11-12T08:51:02.474Z,5.70
2022-11-12T08:53:24.501Z,7.40
2022-11-12T08:55:45.040Z,6.50
2022-11-12T08:58:06.732Z,6.97
2022-11-12T09:00:30.885Z,7.60
2022-11-12T09:02:51.359Z,7.10
2022-11-12T09:05:12.276Z,7.13
2022-11-12T09:07:49.311Z,7.23
2022-11-12T09:10:11.152Z,7.10
2022-11-12T09:12:32.088Z,10.37
2022-11-12T09:14:56.167Z,9.03
2022-11-12T09:17:16.945Z,8.43
2022-11-12T09:19:42.668Z,7.20
2022-11-12T09:22:03.761Z,9.03
2022-11-12T09:24:24.634Z,9.10
2022-11-12T09:26:45.669Z,9.97
2022-11-12T09:29:06.474Z,10.03
2022-11-12T09:31:27.417Z,8.83
2022-11-12T09:33:48.308Z,8.10
2022-11-12T09:36:09.263Z,9.47
2022-11-12T09:38:30.621Z,8.70
2022-11-12T09:40:51.460Z,10.83
2022-11-12T09:43:23.336Z,28.43
2022-11-12T09:45:54.945Z,8.20
2022-11-12T09:48:34.374Z,9.30
2022-11-12T09:50:58.717Z,8.83
2022-11-12T09:53:25.599Z,15.20
2022-11-12T09:55:49.567Z,9.87
2022-11-12T09:58:14.743Z,9.90
2022-11-12T10:00:35.448Z,9.70
2022-11-12T10:03:02.231Z,10.60
2022-11-12T10:05:42.925Z,12.57
2022-11-12T10:08:11.629Z,11.50
2022-11-12T10:10:44.990Z,11.10
2022-11-12T10:13:25.508Z,10.40
2022-11-12T10:16:18.120Z,9.43
2022-11-12T10:19:08.881Z,9.30
2022-11-12T10:21:48.197Z,8.83
2022-11-12T10:24:11.058Z,9.53
2022-11-12T10:26:34.163Z,9.23
2022-11-12T10:29:14.857Z,8.00
2022-11-12T10:31:35.378Z,8.00
2022-11-12T10:34:21.585Z,8.37
2022-11-12T10:37:25.392Z,8.60
2022-11-12T10:39:47.665Z,7.87
2022-11-12T10:42:12.061Z,8.10
2022-11-12T10:44:32.729Z,7.90
2022-11-12T10:47:23.153Z,7.60
2022-11-12T10:49:43.922Z,8.27
2022-11-12T10:52:04.668Z,8.33
2022-11-12T10:54:37.266Z,8.33
2022-11-12T10:57:06.080Z,9.10
2022-11-12T10:59:26.564Z,9.30
2022-11-12T11:01:55.249Z,8.67
2022-11-12T11:04:19.531Z,7.60
2022-11-12T11:06:40.174Z,8.63
2022-11-12T11:09:12.851Z,8.30
2022-11-12T11:11:34.308Z,9.03
2022-11-12T11:13:56.633Z,8.73
2022-11-12T11:16:20.096Z,8.77
2022-11-12T11:18:42.866Z,8.50
2022-11-12T11:21:13.952Z,8.50
2022-11-12T11:23:55.008Z,7.50
2022-11-12T11:26:40.256Z,8.27
2022-11-12T11:29:18.153Z,8.03
2022-11-12T11:31:55.864Z,8.53
2022-11-12T11:34:26.924Z,11.30
2022-11-12T11:36:54.205Z,13.17
2022-11-12T11:39:21.105Z,13.30
2022-11-12T11:41:54.016Z,11.60
2022-11-12T11:45:12.313Z,11.40
2022-11-12T11:47:59.400Z,12.60
2022-11-12T11:51:07.242Z,9.33
2022-11-12T11:53:33.875Z,9.00
2022-11-12T11:56:04.220Z,8.20
2022-11-12T11:58:50.728Z,7.83
2022-11-12T12:01:23.694Z,6.87
2022-11-12T12:03:44.065Z,7.03
2022-11-12T12:06:26.994Z,7.03
2022-11-12T12:08:47.431Z,6.17
2022-11-12T12:11:21.472Z,6.07
2022-11-12T12:13:59.593Z,6.73
2022-11-12T12:16:48.189Z,7.57
2022-11-12T12:19:37.007Z,7.00
2022-11-12T12:21:58.807Z,7.13
2022-11-12T12:24:27.676Z,8.50
2022-11-12T12:26:50.929Z,9.17
2022-11-12T12:29:23.418Z,7.70
2022-11-12T12:32:10.881Z,7.93
2022-11-12T12:34:40.352Z,8.27
2022-11-12T12:37:22.726Z,7.13
2022-11-12T12:39:54.138Z,8.30
2022-11-12T12:42:26.639Z,7.60
2022-11-12T12:45:03.328Z,7.87
2022-11-12T12:47:23.850Z,7.10
2022-11-12T12:49:46.384Z,6.77
2022-11-12T12:52:06.751Z,6.43
2022-11-12T12:54:39.417Z,6.80
2022-11-12T12:56:59.672Z,8.10
2022-11-12T12:59:22.988Z,7.50
2022-11-12T13:01:43.259Z,22.70
2022-11-12T13:04:08.609Z,7.40
2022-11-12T13:06:34.968Z,7.30
2022-11-12T13:08:59.551Z,7.97
2022-11-12T13:11:58.684Z,6.67
2022-11-12T13:14:31.384Z,6.27
2022-11-12T13:16:52.072Z,6.53
2022-11-12T13:19:32.664Z,6.87
2022-11-12T13:22:19.188Z,6.37
2022-11-12T13:25:01.360Z,6.70
2022-11-12T13:27:46.777Z,6.40
2022-11-12T13:30:08.958Z,5.97
2022-11-12T13:32:34.084Z,6.40
2022-11-12T13:35:28.087Z,7.30
2022-11-12T13:37:51.999Z,6.70
2022-11-12T13:40:20.411Z,7.37
2022-11-12T13:42:49.920Z,6.90
2022-11-12T13:45:10.725Z,7.30
2022-11-12T13:47:32.228Z,6.53
2022-11-12T13:49:53.002Z,6.47
2022-11-12T13:52:15.230Z,7.13
2022-11-12T13:54:37.717Z,7.83
2022-11-12T13:57:14.534Z,8.97
2022-11-12T13:59:34.988Z,8.57
2022-11-12T14:01:55.845Z,8.27
2022-11-12T14:04:22.377Z,8.30
2022-11-12T14:06:44.732Z,7.57
2022-11-12T14:09:14.594Z,8.60
2022-11-12T14:12:06.726Z,9.50
2022-11-12T14:14:53.401Z,8.97
2022-11-12T14:17:31.731Z,8.00
2022-11-12T14:20:15.613Z,6.43
2022-11-12T14:22:41.701Z,6.50
2022-11-12T14:25:03.164Z,5.83
2022-11-12T14:27:33.560Z,5.70
2022-11-12T14:30:17.897Z,6.23
2022-11-12T14:32:40.680Z,6.17
2022-11-12T14:35:00.999Z,6.63
2022-11-12T14:37:39.897Z,6.17
2022-11-12T14:40:03.855Z,6.97
2022-11-12T14:42:24.460Z,6.23
2022-11-12T14:44:45.180Z,5.80
2022-11-12T14:47:05.725Z,7.30
2022-11-12T14:49:43.594Z,6.50
2022-11-12T14:52:20.873Z,6.10
2022-11-12T14:54:47.531Z,6.53
2022-11-12T14:57:16.000Z,6.70
2022-11-12T14:59:36.663Z,5.93
2022-11-12T15:02:31.669Z,7.20
2022-11-12T15:05:23.683Z,6.00
2022-11-12T15:07:50.597Z,6.50
2022-11-12T15:10:30.957Z,6.10
2022-11-12T15:12:51.389Z,8.10
2022-11-12T15:15:23.592Z,7.40
2022-11-12T15:17:44.072Z,7.93
2022-11-12T15:20:11.956Z,7.80
2022-11-12T15:22:33.422Z,7.33
2022-11-12T15:24:54.351Z,7.10
2022-11-12T15:27:36.121Z,7.13
2022-11-12T15:30:16.147Z,9.00
2022-11-12T15:32:36.613Z,11.83
2022-11-12T15:34:57.266Z,13.73
2022-11-12T15:37:17.950Z,16.90
2022-11-12T15:39:53.672Z,12.33
2022-11-12T15:42:26.849Z,17.13
2022-11-12T15:44:47.682Z,16.40
2022-11-12T15:47:10.897Z,19.60
2022-11-12T15:49:31.465Z,21.73
2022-11-12T15:51:51.930Z,16.70
2022-11-12T15:54:12.574Z,23.53
2022-11-12T15:56:33.609Z,23.50
2022-11-12T15:58:54.300Z,52.20
2022-11-12T16:01:15.085Z,45.10
2022-11-12T16:03:35.718Z,29.07
2022-11-12T16:05:56.279Z,33.20
2022-11-12T16:08:17.070Z,28.60
2022-11-12T16:10:39.053Z,31.97
2022-11-12T16:13:01.015Z,36.50
2022-11-12T16:15:25.490Z,26.00
2022-11-12T16:17:46.850Z,22.17
2022-11-12T16:20:22.189Z,27.70
2022-11-12T16:22:43.271Z,22.37
2022-11-12T16:25:03.978Z,23.73
2022-11-12T16:27:24.362Z,23.33
2022-11-12T16:29:57.211Z,24.57
2022-11-12T16:32:17.965Z,24.07
2022-11-12T16:34:38.634Z,22.87
2022-11-12T16:36:59.365Z,29.93
2022-11-12T16:39:19.763Z,32.60
2022-11-12T16:41:40.515Z,29.47
2022-11-12T16:44:01.159Z,24.60
2022-11-12T16:46:28.167Z,24.30
2022-11-12T16:48:48.768Z,23.27
2022-11-12T16:51:17.884Z,23.47
2022-11-12T16:53:38.268Z,24.20
2022-11-12T16:55:59.059Z,26.47
2022-11-12T16:58:19.769Z,22.90
2022-11-12T17:00:42.076Z,26.07
2022-11-12T17:03:02.935Z,27.47
2022-11-12T17:05:26.210Z,28.90
2022-11-12T17:07:47.436Z,26.90
2022-11-12T17:10:08.541Z,28.17
2022-11-12T17:12:29.184Z,29.20
2022-11-12T17:14:49.779Z,29.10
2022-11-12T17:17:10.475Z,28.47
2022-11-12T17:19:31.122Z,29.80
2022-11-12T17:21:51.737Z,31.73
2022-11-12T17:24:12.356Z,29.47
2022-11-12T17:26:32.924Z,26.70
2022-11-12T17:29:00.099Z,27.37
2022-11-12T17:31:23.483Z,26.17
2022-11-12T17:33:46.313Z,23.33
2022-11-12T17:36:09.118Z,24.07
2022-11-12T17:38:30.376Z,23.40
2022-11-12T17:40:55.289Z,24.60
2022-11-12T17:43:15.624Z,22.27
2022-11-12T17:45:36.199Z,25.37
2022-11-12T17:47:56.753Z,23.30
2022-11-12T17:50:17.405Z,22.67
2022-11-12T17:52:37.961Z,22.20
2022-11-12T17:54:58.666Z,24.23
2022-11-12T17:57:19.352Z,24.20
2022-11-12T17:59:39.840Z,23.13
2022-11-12T18:02:00.421Z,27.20
2022-11-12T18:04:23.483Z,24.53
2022-11-12T18:06:44.572Z,25.90
2022-11-12T18:09:14.542Z,24.60
2022-11-12T18:11:43.935Z,23.57
2022-11-12T18:14:08.644Z,25.93
2022-11-12T18:16:29.529Z,26.53
2022-11-12T18:18:50.576Z,27.80
2022-11-12T18:21:11.048Z,27.23
2022-11-12T18:23:31.782Z,32.00
2022-11-12T18:25:52.341Z,29.50
2022-11-12T18:28:13.293Z,32.87
2022-11-12T18:30:34.808Z,33.80
2022-11-12T18:32:55.522Z,35.67
2022-11-12T18:35:16.368Z,30.50
2022-11-12T18:37:37.032Z,30.57
2022-11-12T18:39:57.629Z,29.50
2022-11-12T18:42:18.250Z,29.93
2022-11-12T18:44:38.833Z,27.77
2022-11-12T18:46:59.480Z,28.93
2022-11-12T18:49:20.049Z,27.97
2022-11-12T18:51:40.688Z,28.07
2022-11-12T18:54:01.072Z,28.03
2022-11-12T18:56:22.212Z,28.13
2022-11-12T18:58:43.158Z,26.70
2022-11-12T19:01:12.233Z,26.80
2022-11-12T19:03:33.121Z,26.50
2022-11-12T19:06:01.041Z,28.47
2022-11-12T19:08:21.298Z,24.37
2022-11-12T19:10:41.879Z,25.33
2022-11-12T19:13:04.122Z,25.67
2022-11-12T19:15:26.994Z,25.87
2022-11-12T19:17:47.778Z,26.90
2022-11-12T19:20:09.025Z,25.93
2022-11-12T19:22:29.534Z,24.17
2022-11-12T19:24:50.503Z,26.83
2022-11-12T19:27:11.104Z,25.07
2022-11-12T19:29:32.307Z,24.83
2022-11-12T19:31:53.064Z,27.13
2022-11-12T19:34:13.637Z,24.40
2022-11-12T19:36:34.392Z,23.27
2022-11-12T19:39:00.106Z,24.53
2022-11-12T19:41:20.771Z,24.40
2022-11-12T19:43:41.705Z,23.70
2022-11-12T19:46:02.362Z,23.50
2022-11-12T19:48:22.801Z,24.73
2022-11-12T19:50:43.470Z,26.20
2022-11-12T19:53:04.188Z,25.27
2022-11-12T19:55:25.757Z,24.37
2022-11-12T19:57:46.577Z,25.50
2022-11-12T20:00:07.938Z,26.20
2022-11-12T20:02:29.015Z,23.07
2022-11-12T20:04:49.445Z,23.83
2022-11-12T20:07:10.128Z,22.93
2022-11-12T20:09:31.911Z,21.67
2022-11-12T20:11:52.342Z,24.10
2022-11-12T20:14:12.973Z,22.47
2022-11-12T20:16:33.819Z,23.90
2022-11-12T20:18:55.744Z,22.47
2022-11-12T20:21:16.581Z,24.20
2022-11-12T20:23:38.775Z,22.23
2022-11-12T20:26:06.213Z,24.50
2022-11-12T20:28:27.135Z,24.10
2022-11-12T20:30:47.820Z,27.97
2022-11-12T20:33:08.700Z,34.30
2022-11-12T20:35:29.152Z,28.60
2022-11-12T20:37:50.112Z,23.20
2022-11-12T20:40:10.854Z,22.27
2022-11-12T20:42:31.356Z,22.87
2022-11-12T20:44:52.169Z,23.47
2022-11-12T20:47:13.211Z,21.03
2022-11-12T20:49:34.045Z,20.83
2022-11-12T20:51:54.579Z,23.60
2022-11-12T20:54:15.677Z,23.07
2022-11-12T20:56:36.528Z,21.33
2022-11-12T20:58:58.211Z,20.10
2022-11-12T21:01:21.190Z,19.43
2022-11-12T21:03:43.293Z,20.70
2022-11-12T21:06:06.093Z,19.63
2022-11-12T21:08:28.376Z,19.10
2022-11-12T21:10:50.325Z,17.87
2022-11-12T21:13:11.189Z,19.40
2022-11-12T21:15:31.981Z,18.53
2022-11-12T21:17:52.768Z,17.93
2022-11-12T21:20:13.598Z,18.60
2022-11-12T21:22:34.772Z,18.60
2022-11-12T21:24:55.476Z,18.10
2022-11-12T21:27:16.217Z,19.13
2022-11-12T21:29:37.202Z,18.50
2022-11-12T21:31:57.895Z,21.33
2022-11-12T21:34:18.646Z,20.07
2022-11-12T21:36:39.517Z,19.80
2022-11-12T21:39:00.397Z,22.20
2022-11-12T21:41:23.629Z,21.13
2022-11-12T21:43:45.584Z,22.80
2022-11-12T21:46:17.031Z,21.90
2022-11-12T21:48:37.585Z,21.20
2022-11-12T21:51:03.480Z,21.40
2022-11-12T21:53:24.808Z,22.47
2022-11-12T21:55:45.641Z,23.17
2022-11-12T21:58:06.737Z,21.10
2022-11-12T22:00:41.637Z,22.60
2022-11-12T22:03:03.358Z,21.47
2022-11-12T22:05:24.379Z,21.67
2022-11-12T22:07:44.820Z,22.20
2022-11-12T22:10:06.644Z,23.10
2022-11-12T22:12:26.999Z,21.00
2022-11-12T22:14:47.720Z,20.90
2022-11-12T22:17:08.485Z,21.50
2022-11-12T22:19:29.182Z,22.23
2022-11-12T22:21:49.947Z,20.53
2022-11-12T22:24:11.893Z,21.47
2022-11-12T22:26:32.341Z,20.67
2022-11-12T22:28:54.072Z,22.37
2022-11-12T22:31:23.069Z,23.30
2022-11-12T22:33:43.629Z,23.67
2022-11-12T22:36:09.567Z,20.77
2022-11-12T22:38:37.661Z,20.77
2022-11-12T22:41:07.001Z,19.77
2022-11-12T22:43:27.774Z,21.20
2022-11-12T22:45:48.396Z,21.20
2022-11-12T22:48:08.870Z,20.73
2022-11-12T22:50:29.791Z,21.30
2022-11-12T22:52:50.647Z,21.20
2022-11-12T22:55:11.661Z,21.80
2022-11-12T22:57:32.476Z,20.87
2022-11-12T22:59:53.121Z,20.60
2022-11-12T23:02:13.975Z,19.57
2022-11-12T23:04:35.357Z,21.17
2022-11-12T23:06:55.837Z,21.07
2022-11-12T23:09:17.258Z,19.47
2022-11-12T23:11:38.417Z,21.00
2022-11-12T23:13:59.236Z,20.50
2022-11-12T23:16:22.661Z,18.70
2022-11-12T23:18:43.434Z,18.67
2022-11-12T23:21:15.342Z,20.20
2022-11-12T23:23:36.191Z,20.43
2022-11-12T23:26:04.830Z,19.80
2022-11-12T23:28:25.535Z,20.53
2022-11-12T23:30:50.577Z,18.83
2022-11-12T23:33:11.291Z,18.37
2022-11-12T23:35:32.135Z,17.83
2022-11-12T23:37:53.460Z,18.67
2022-11-12T23:40:14.037Z,18.07
2022-11-12T23:42:35.420Z,19.10
2022-11-12T23:44:55.962Z,20.10
2022-11-12T23:47:16.736Z,19.20
2022-11-12T23:49:37.371Z,19.53
2022-11-12T23:51:58.412Z,18.63
2022-11-12T23:54:18.955Z,19.07
2022-11-12T23:56:39.734Z,19.20
2022-11-12T23:59:00.688Z,18.47
